Time;durP1;ratioP1;P1;durP2;ratioP2;P2;SDS_P1;SDS_P2;PMS_P1;PMS_P2;Temp;Humidity;BMP_temperature;BMP_pressure;BME280_temperature;BME280_humidity;BME280_pressure;Samples;Min_cycle;Max_cycle;Signal;HPM_P1;HPM_P2
2022/07/19 00:00:05;;;;;;;;;;;;;;;25.24;51.46;101542.53;1051430;28;714;-65
2022/07/19 00:00:56;;;;;;;;;;;;;;;25.35;51.36;101554.06;1051219;28;631;-65
2022/07/19 00:01:47;;;;;;;;;;;;;;;25.32;51.39;101552.56;1051485;28;717;-65
2022/07/19 00:02:38;;;;;;;;;;;;;;;25.31;51.63;101547.28;1051164;28;677;-65
2022/07/19 00:03:28;;;;;;;;;;;;;;;25.27;51.62;101542.16;1051382;28;777;-64
2022/07/19 00:04:18;;;;;;;;;;;;;;;25.32;51.50;101544.38;1051115;28;622;-64
2022/07/19 00:05:09;;;;;;;;;;;;;;;25.37;51.20;101543.84;1051426;28;772;-64
2022/07/19 00:05:59;;;;;;;;;;;;;;;25.32;51.55;101549.81;1052273;28;708;-64
2022/07/19 00:06:50;;;;;;;;;;;;;;;25.30;51.45;101548.28;1050787;28;662;-64
2022/07/19 00:07:40;;;;;;;;;;;;;;;25.32;51.49;101546.25;1047250;28;1353;-64
2022/07/19 00:08:30;;;;;;;;;;;;;;;25.38;51.16;101549.13;1047796;28;622;-64
2022/07/19 00:09:21;;;;;;;;;;;;;;;25.32;51.17;101546.25;1052360;28;669;-65
2022/07/19 00:10:11;;;;;;;;;;;;;;;25.25;51.10;101546.97;1051043;28;685;-64
2022/07/19 00:11:02;;;;;;;;;;;;;;;25.25;51.28;101541.53;1047464;28;528;-64
2022/07/19 00:11:52;;;;;;;;;;;;;;;25.30;51.36;101542.84;1048050;28;1583;-64
2022/07/19 00:12:43;;;;;;;;;;;;;;;25.31;51.11;101539.94;1052470;28;703;-64
2022/07/19 00:13:33;;;;;;;;;;;;;;;25.24;51.65;101537.09;1051353;28;673;-64
2022/07/19 00:14:23;;;;;;;;;;;;;;;25.18;51.67;101534.22;1051178;28;763;-64
2022/07/19 00:15:14;;;;;;;;;;;;;;;25.22;51.42;101538.28;1051397;28;721;-64
2022/07/19 00:16:04;;;;;;;;;;;;;;;25.27;51.39;101539.44;1050952;28;635;-64
2022/07/19 00:16:55;;;;;;;;;;;;;;;25.27;51.25;101535.84;1051285;28;634;-64
2022/07/19 00:17:46;;;;;;;;;;;;;;;25.27;51.32;101536.72;1051390;28;1953;-64
2022/07/19 00:18:36;;;;;;;;;;;;;;;25.23;51.61;101540.00;1051378;28;666;-64
2022/07/19 00:19:26;;;;;;;;;;;;;;;25.27;51.53;101539.44;1051024;28;610;-64
2022/07/19 00:20:17;;;;;;;;;;;;;;;25.29;51.40;101532.94;1051400;28;666;-64
2022/07/19 00:21:07;;;;;;;;;;;;;;;25.29;51.35;101530.22;1050553;28;702;-63
2022/07/19 00:21:58;;;;;;;;;;;;;;;25.32;51.17;101527.13;1051100;28;781;-65
2022/07/19 00:22:48;;;;;;;;;;;;;;;25.31;51.32;101537.22;1050922;28;618;-65
2022/07/19 00:23:39;;;;;;;;;;;;;;;25.35;51.19;101529.50;1051087;28;647;-64
2022/07/19 00:24:29;;;;;;;;;;;;;;;25.34;51.28;101538.72;1051438;28;650;-65
2022/07/19 00:25:19;;;;;;;;;;;;;;;25.23;51.28;101535.38;1051014;28;642;-65
2022/07/19 00:26:10;;;;;;;;;;;;;;;25.24;51.28;101531.63;1047401;28;666;-64
2022/07/19 00:27:00;;;;;;;;;;;;;;;25.21;51.25;101534.72;1048364;28;690;-64
2022/07/19 00:27:51;;;;;;;;;;;;;;;25.21;51.51;101529.25;1052391;28;606;-64
2022/07/19 00:28:41;;;;;;;;;;;;;;;25.25;51.22;101533.34;1051382;28;988;-64
2022/07/19 00:29:32;;;;;;;;;;;;;;;25.24;51.31;101530.78;1052231;28;658;-64
2022/07/19 00:30:22;;;;;;;;;;;;;;;25.25;51.35;101532.47;1053244;28;688;-64
2022/07/19 00:31:13;;;;;;;;;;;;;;;25.24;51.59;101542.53;1052590;28;782;-64
2022/07/19 00:32:03;;;;;;;;;;;;;;;25.21;51.56;101533.88;1049383;28;665;-64
2022/07/19 00:32:53;;;;;;;;;;;;;;;25.18;51.47;101537.78;1049852;28;661;-65
2022/07/19 00:33:44;;;;;;;;;;;;;;;25.24;51.36;101536.25;1053756;28;649;-65
2022/07/19 00:34:34;;;;;;;;;;;;;;;25.25;51.36;101535.22;1052342;28;693;-65
2022/07/19 00:35:25;;;;;;;;;;;;;;;25.21;51.37;101536.59;1053196;28;724;-65
2022/07/19 00:36:15;;;;;;;;;;;;;;;25.19;51.36;101538.66;1052918;28;689;-65
2022/07/19 00:37:06;;;;;;;;;;;;;;;25.19;51.50;101536.75;1053156;28;618;-65
2022/07/19 00:37:56;;;;;;;;;;;;;;;25.23;51.37;101537.25;1052564;28;1941;-64
2022/07/19 00:38:46;;;;;;;;;;;;;;;25.18;51.63;101539.66;1052396;28;677;-65
2022/07/19 00:39:37;;;;;;;;;;;;;;;25.17;51.67;101535.25;1052546;28;784;-64
2022/07/19 00:40:27;;;;;;;;;;;;;;;25.14;51.72;101541.03;1052309;28;697;-64
2022/07/19 00:41:18;;;;;;;;;;;;;;;25.21;51.61;101533.88;1052583;28;614;-64
2022/07/19 00:42:08;;;;;;;;;;;;;;;25.20;51.48;101533.00;1049144;28;1571;-64
2022/07/19 00:42:59;;;;;;;;;;;;;;;25.23;51.38;101529.94;1049191;28;672;-64
2022/07/19 00:43:51;;;;;;;;;;;;;;;25.22;51.53;101538.28;1054248;28;735;-64
2022/07/19 00:44:41;;;;;;;;;;;;;;;25.19;51.55;101531.31;1052513;28;753;-64
2022/07/19 00:45:31;;;;;;;;;;;;;;;25.19;51.58;101536.75;1057529;28;662;-64
2022/07/19 00:46:22;;;;;;;;;;;;;;;25.20;51.63;101535.75;1057030;28;661;-64
2022/07/19 00:47:12;;;;;;;;;;;;;;;25.20;51.63;101534.88;1049233;28;626;-64
2022/07/19 00:48:03;;;;;;;;;;;;;;;25.19;51.62;101536.75;1050298;28;717;-64
2022/07/19 00:48:53;;;;;;;;;;;;;;;25.18;51.76;101534.22;1052654;28;806;-63
2022/07/19 00:49:44;;;;;;;;;;;;;;;25.18;51.76;101529.59;1052404;28;700;-64
2022/07/19 00:50:34;;;;;;;;;;;;;;;25.18;51.71;101532.34;1052031;28;643;-65
2022/07/19 00:51:24;;;;;;;;;;;;;;;25.19;51.72;101533.19;1048678;28;646;-64
2022/07/19 00:52:15;;;;;;;;;;;;;;;25.17;51.65;101535.25;1048421;28;1161;-64
2022/07/19 00:53:06;;;;;;;;;;;;;;;25.16;51.61;101531.66;1048897;28;748;-64
2022/07/19 00:53:56;;;;;;;;;;;;;;;25.19;51.45;101528.59;1048290;28;652;-64
2022/07/19 00:54:47;;;;;;;;;;;;;;;25.13;51.92;101532.00;1048288;28;661;-65
2022/07/19 00:55:38;;;;;;;;;;;;;;;25.13;51.68;101533.88;1048504;28;645;-65
2022/07/19 00:56:28;;;;;;;;;;;;;;;25.14;51.73;101535.59;1048798;28;684;-65
2022/07/19 00:57:19;;;;;;;;;;;;;;;25.15;51.55;101531.84;1048303;28;658;-65
2022/07/19 00:58:09;;;;;;;;;;;;;;;25.16;51.80;101531.66;1048971;28;1951;-65
2022/07/19 00:59:00;;;;;;;;;;;;;;;25.13;51.73;101534.75;1048276;28;700;-65
2022/07/19 00:59:51;;;;;;;;;;;;;;;25.16;51.60;101528.09;1049024;28;753;-64
2022/07/19 01:00:41;;;;;;;;;;;;;;;25.16;51.82;101534.38;1048932;28;625;-65
2022/07/19 01:01:32;;;;;;;;;;;;;;;25.17;51.77;101537.97;1048190;28;670;-65
2022/07/19 01:02:22;;;;;;;;;;;;;;;25.15;51.64;101524.50;1048954;28;681;-65
2022/07/19 01:03:13;;;;;;;;;;;;;;;25.12;51.84;101526.72;1048251;28;638;-65
2022/07/19 01:04:03;;;;;;;;;;;;;;;25.12;51.93;101533.03;1048859;28;693;-64
2022/07/19 01:04:54;;;;;;;;;;;;;;;25.15;51.72;101520.94;1047881;28;641;-65
2022/07/19 01:05:44;;;;;;;;;;;;;;;25.13;51.79;101528.44;1048055;28;713;-64
2022/07/19 01:06:35;;;;;;;;;;;;;;;25.15;51.75;101531.84;1048304;28;686;-64
2022/07/19 01:07:25;;;;;;;;;;;;;;;25.17;51.69;101525.19;1048300;28;1106;-64
2022/07/19 01:08:15;;;;;;;;;;;;;;;25.13;51.62;101529.28;1048243;28;625;-64
2022/07/19 01:09:06;;;;;;;;;;;;;;;25.13;51.74;101529.28;1048470;28;748;-64
2022/07/19 01:09:56;;;;;;;;;;;;;;;25.12;51.61;101535.75;1048018;28;634;-64
2022/07/19 01:10:47;;;;;;;;;;;;;;;25.15;51.84;101537.28;1048821;28;695;-65
2022/07/19 01:11:37;;;;;;;;;;;;;;;25.13;51.79;101533.88;1053092;28;1619;-64
2022/07/19 01:12:29;;;;;;;;;;;;;;;25.08;51.81;101537.13;1056866;28;665;-64
2022/07/19 01:13:20;;;;;;;;;;;;;;;25.12;51.56;101535.75;1052377;28;618;-64
2022/07/19 01:14:10;;;;;;;;;;;;;;;25.14;51.53;101532.88;1052373;28;639;-65
2022/07/19 01:15:00;;;;;;;;;;;;;;;25.11;51.68;101531.34;1052248;28;690;-64
2022/07/19 01:15:51;;;;;;;;;;;;;;;25.10;51.80;101529.63;1052933;28;1567;-65
2022/07/19 01:16:41;;;;;;;;;;;;;;;25.10;51.75;101523.31;1052147;28;954;-64
2022/07/19 01:17:32;;;;;;;;;;;;;;;25.10;51.51;101528.78;1052385;28;642;-64
2022/07/19 01:18:22;;;;;;;;;;;;;;;25.06;51.67;101528.31;1053122;28;1175;-65
2022/07/19 01:19:13;;;;;;;;;;;;;;;25.08;51.55;101526.22;1051813;28;685;-65
2022/07/19 01:20:03;;;;;;;;;;;;;;;25.05;51.78;101521.16;1052187;28;768;-64
2022/07/19 01:20:54;;;;;;;;;;;;;;;25.09;51.71;101524.34;1052307;28;657;-64
2022/07/19 01:21:44;;;;;;;;;;;;;;;25.09;51.81;101529.81;1052215;28;681;-64
2022/07/19 01:22:35;;;;;;;;;;;;;;;25.10;51.67;101520.59;1057391;28;645;-63
2022/07/19 01:23:25;;;;;;;;;;;;;;;25.10;51.60;101518.72;1056494;28;672;-64
2022/07/19 01:24:16;;;;;;;;;;;;;;;25.10;51.50;101524.19;1052429;28;689;-64
2022/07/19 01:25:06;;;;;;;;;;;;;;;25.09;51.49;101519.75;1053100;28;697;-64
2022/07/19 01:25:56;;;;;;;;;;;;;;;25.04;51.90;101524.06;1052148;28;626;-64
2022/07/19 01:26:47;;;;;;;;;;;;;;;25.04;51.62;101515.88;1052686;28;809;-64
2022/07/19 01:27:37;;;;;;;;;;;;;;;25.08;51.52;101515.31;1052060;28;661;-65
2022/07/19 01:28:28;;;;;;;;;;;;;;;25.07;51.81;101523.72;1052347;28;685;-64
2022/07/19 01:29:18;;;;;;;;;;;;;;;25.04;51.68;101515.88;1053112;28;704;-64
2022/07/19 01:30:09;;;;;;;;;;;;;;;25.06;51.76;101522.00;1052231;28;701;-64
2022/07/19 01:30:59;;;;;;;;;;;;;;;25.06;51.66;101517.41;1051894;28;728;-65
2022/07/19 01:31:49;;;;;;;;;;;;;;;25.07;51.78;101521.84;1052041;28;701;-65
2022/07/19 01:32:40;;;;;;;;;;;;;;;25.03;51.46;101516.91;1052333;28;694;-64
2022/07/19 01:33:30;;;;;;;;;;;;;;;25.05;51.66;101525.75;1052388;28;658;-65
2022/07/19 01:34:21;;;;;;;;;;;;;;;25.05;51.60;101523.88;1052904;28;667;-65
2022/07/19 01:35:11;;;;;;;;;;;;;;;25.04;51.66;101522.19;1052198;28;689;-65
2022/07/19 01:36:01;;;;;;;;;;;;;;;25.05;51.79;101520.31;1052152;28;745;-65
2022/07/19 01:36:52;;;;;;;;;;;;;;;25.05;51.67;101512.97;1052946;28;689;-65
2022/07/19 01:37:42;;;;;;;;;;;;;;;25.04;51.62;101519.44;1057330;28;675;-64
2022/07/19 01:38:33;;;;;;;;;;;;;;;25.04;51.81;101521.34;1054634;28;1593;-64
2022/07/19 01:39:23;;;;;;;;;;;;;;;25.03;51.62;101525.94;1049096;28;684;-64
2022/07/19 01:40:13;;;;;;;;;;;;;;;25.01;51.80;101521.69;1047509;28;654;-64
2022/07/19 01:41:04;;;;;;;;;;;;;;;24.98;51.89;101520.16;1047859;28;717;-64
2022/07/19 01:41:54;;;;;;;;;;;;;;;25.03;51.79;101516.91;1048488;28;697;-64
2022/07/19 01:42:45;;;;;;;;;;;;;;;24.99;51.80;101521.00;1047692;28;633;-64
2022/07/19 01:43:35;;;;;;;;;;;;;;;24.99;51.94;101521.00;1049253;28;673;-64
2022/07/19 01:44:26;;;;;;;;;;;;;;;25.00;51.71;101519.97;1048152;28;677;-64
2022/07/19 01:45:16;;;;;;;;;;;;;;;24.99;51.59;101516.41;1047793;28;651;-64
2022/07/19 01:46:07;;;;;;;;;;;;;;;25.00;51.88;101512.66;1048165;28;602;-65
2022/07/19 01:46:57;;;;;;;;;;;;;;;25.00;51.94;101526.28;1050119;28;1654;-65
2022/07/19 01:47:48;;;;;;;;;;;;;;;25.00;51.88;101518.09;1052168;28;646;-64
2022/07/19 01:48:38;;;;;;;;;;;;;;;24.97;52.02;101517.59;1052957;28;611;-65
2022/07/19 01:49:29;;;;;;;;;;;;;;;24.99;51.80;101518.28;1052732;28;641;-65
2022/07/19 01:50:19;;;;;;;;;;;;;;;24.99;51.76;101518.28;1052170;28;685;-64
2022/07/19 01:51:09;;;;;;;;;;;;;;;25.00;51.79;101518.09;1048489;28;689;-65
2022/07/19 01:52:00;;;;;;;;;;;;;;;24.99;51.88;101513.66;1048113;28;701;-65
2022/07/19 01:52:50;;;;;;;;;;;;;;;24.96;51.70;101519.47;1052400;28;869;-65
2022/07/19 01:53:41;;;;;;;;;;;;;;;24.96;52.03;101516.75;1052557;28;662;-64
2022/07/19 01:54:31;;;;;;;;;;;;;;;24.98;51.74;101520.16;1045565;28;684;-64
2022/07/19 01:55:22;;;;;;;;;;;;;;;24.98;51.94;101513.84;1044212;28;627;-65
2022/07/19 01:56:12;;;;;;;;;;;;;;;24.92;51.82;101512.63;1043266;28;691;-65
2022/07/19 01:57:03;;;;;;;;;;;;;;;24.96;51.78;101505.84;1049157;28;651;-65
2022/07/19 01:57:53;;;;;;;;;;;;;;;24.95;51.76;101514.19;1048699;28;1898;-64
2022/07/19 01:58:43;;;;;;;;;;;;;;;24.96;51.78;101510.44;1048524;28;640;-64
2022/07/19 01:59:34;;;;;;;;;;;;;;;24.96;51.80;101510.44;1048231;28;627;-65
2022/07/19 02:00:24;;;;;;;;;;;;;;;24.95;51.66;101509.59;1047586;28;677;-64
2022/07/19 02:01:15;;;;;;;;;;;;;;;24.95;51.72;101504.13;1048648;28;701;-65
2022/07/19 02:02:05;;;;;;;;;;;;;;;24.91;51.83;101508.22;1048755;28;787;-64
2022/07/19 02:02:55;;;;;;;;;;;;;;;24.90;51.88;101507.34;1047370;28;663;-65
2022/07/19 02:03:46;;;;;;;;;;;;;;;24.91;51.99;101510.94;1048109;28;701;-65
2022/07/19 02:04:36;;;;;;;;;;;;;;;24.92;51.91;101502.59;1047776;28;596;-64
2022/07/19 02:05:27;;;;;;;;;;;;;;;24.92;52.15;101509.91;1047911;28;808;-65
2022/07/19 02:06:17;;;;;;;;;;;;;;;24.92;51.69;101509.91;1048020;28;714;-65
2022/07/19 02:07:08;;;;;;;;;;;;;;;24.88;51.97;101508.59;1047993;28;646;-65
2022/07/19 02:07:58;;;;;;;;;;;;;;;24.91;51.75;101513.66;1048755;28;743;-65
2022/07/19 02:08:48;;;;;;;;;;;;;;;24.88;51.77;101503.13;1051278;28;1639;-64
2022/07/19 02:09:39;;;;;;;;;;;;;;;24.89;52.16;101502.97;1051952;28;709;-65
2022/07/19 02:10:29;;;;;;;;;;;;;;;24.89;51.93;101502.09;1052443;28;651;-64
2022/07/19 02:11:35;;;;;;;;;;;;;;;24.89;51.74;101493.94;1052100;28;677;-65
2022/07/19 02:12:25;;;;;;;;;;;;;;;24.88;51.79;101494.94;1053826;28;775;-65
2022/07/19 02:13:16;;;;;;;;;;;;;;;24.87;52.00;101496.84;1052057;28;717;-64
2022/07/19 02:14:06;;;;;;;;;;;;;;;24.88;51.84;101494.94;1052126;28;639;-64
2022/07/19 02:14:57;;;;;;;;;;;;;;;24.88;51.72;101497.69;1052051;28;634;-65
2022/07/19 02:15:47;;;;;;;;;;;;;;;24.87;51.71;101494.09;1052039;28;713;-65
2022/07/19 02:16:37;;;;;;;;;;;;;;;24.87;51.65;101494.09;1051907;28;677;-65
2022/07/19 02:17:28;;;;;;;;;;;;;;;24.86;51.84;101492.41;1051568;28;687;-65
2022/07/19 02:18:18;;;;;;;;;;;;;;;24.88;51.70;101497.69;1052907;28;688;-65
2022/07/19 02:19:09;;;;;;;;;;;;;;;24.87;51.62;101494.09;1052193;28;772;-65
2022/07/19 02:19:59;;;;;;;;;;;;;;;24.87;51.82;101491.38;1052153;28;653;-65
2022/07/19 02:20:50;;;;;;;;;;;;;;;24.87;51.65;101495.97;1057118;28;895;-65
2022/07/19 02:21:40;;;;;;;;;;;;;;;24.84;51.59;101491.72;1057253;28;732;-64
2022/07/19 02:22:30;;;;;;;;;;;;;;;24.84;51.54;101490.88;1052098;28;595;-65
2022/07/19 02:23:21;;;;;;;;;;;;;;;24.80;51.83;101493.09;1052019;28;650;-65
2022/07/19 02:24:11;;;;;;;;;;;;;;;24.82;51.75;101488.31;1052278;28;650;-65
2022/07/19 02:25:02;;;;;;;;;;;;;;;24.84;51.52;101483.53;1052637;28;658;-65
2022/07/19 02:25:53;;;;;;;;;;;;;;;24.83;51.77;101489.19;1052130;28;647;-64
2022/07/19 02:26:43;;;;;;;;;;;;;;;24.81;51.78;101492.06;1052931;28;698;-65
2022/07/19 02:27:34;;;;;;;;;;;;;;;24.82;51.74;101488.31;1052774;28;610;-64
2022/07/19 02:28:24;;;;;;;;;;;;;;;24.82;51.77;101487.47;1052920;28;653;-64
2022/07/19 02:29:15;;;;;;;;;;;;;;;24.82;51.73;101482.88;1051965;28;666;-64
2022/07/19 02:30:05;;;;;;;;;;;;;;;24.82;51.87;101488.31;1057328;28;664;-64
2022/07/19 02:30:55;;;;;;;;;;;;;;;24.82;51.61;101482.88;1055814;28;709;-64
2022/07/19 02:31:46;;;;;;;;;;;;;;;24.83;51.50;101494.63;1048459;28;622;-64
2022/07/19 02:32:36;;;;;;;;;;;;;;;24.85;51.51;101484.41;1050047;28;668;-64
2022/07/19 02:33:27;;;;;;;;;;;;;;;24.81;51.59;101488.50;1053877;28;638;-64
2022/07/19 02:34:17;;;;;;;;;;;;;;;24.81;51.61;101485.78;1052806;28;642;-64
2022/07/19 02:35:08;;;;;;;;;;;;;;;24.80;51.66;101493.09;1051935;28;638;-64
2022/07/19 02:35:58;;;;;;;;;;;;;;;24.80;51.51;101492.25;1051989;28;775;-64
2022/07/19 02:36:48;;;;;;;;;;;;;;;24.77;51.58;101490.72;1051801;28;623;-64
2022/07/19 02:37:39;;;;;;;;;;;;;;;24.81;51.74;101494.81;1052032;28;701;-64
2022/07/19 02:38:30;;;;;;;;;;;;;;;24.78;51.61;101497.03;1051599;28;1587;-64
2022/07/19 02:39:20;;;;;;;;;;;;;;;24.78;51.51;101495.16;1051711;28;697;-63
2022/07/19 02:40:11;;;;;;;;;;;;;;;24.78;51.52;101492.41;1051131;28;1646;-64
2022/07/19 02:41:01;;;;;;;;;;;;;;;24.76;51.53;101496.34;1051615;28;713;-64
2022/07/19 02:41:51;;;;;;;;;;;;;;;24.77;51.75;101490.72;1052492;28;914;-64
2022/07/19 02:42:42;;;;;;;;;;;;;;;24.77;51.59;101490.72;1051503;28;621;-64
2022/07/19 02:43:32;;;;;;;;;;;;;;;24.77;51.59;101492.59;1051720;28;752;-64
2022/07/19 02:44:23;;;;;;;;;;;;;;;24.76;51.77;101497.19;1051434;28;690;-64
2022/07/19 02:45:13;;;;;;;;;;;;;;;24.77;51.74;101492.59;1051877;28;772;-65
2022/07/19 02:46:04;;;;;;;;;;;;;;;24.74;51.95;101495.66;1051519;28;642;-64
2022/07/19 02:46:54;;;;;;;;;;;;;;;24.74;51.60;101495.66;1051748;28;697;-64
2022/07/19 02:47:46;;;;;;;;;;;;;;;24.73;51.54;101486.63;1051228;28;649;-64
2022/07/19 02:48:37;;;;;;;;;;;;;;;24.73;51.74;101499.41;1052113;28;661;-64
2022/07/19 02:49:27;;;;;;;;;;;;;;;24.73;51.68;101496.69;1051919;28;662;-65
2022/07/19 02:50:18;;;;;;;;;;;;;;;24.72;51.75;101492.28;1051366;28;720;-64
2022/07/19 02:51:08;;;;;;;;;;;;;;;24.71;51.73;101496.91;1047991;28;696;-64
2022/07/19 02:51:59;;;;;;;;;;;;;;;24.71;51.97;101496.03;1047731;28;682;-64
2022/07/19 02:52:49;;;;;;;;;;;;;;;24.73;51.81;101499.41;1047484;28;673;-64
2022/07/19 02:53:39;;;;;;;;;;;;;;;24.72;51.78;101492.28;1048298;28;649;-64
2022/07/19 02:54:30;;;;;;;;;;;;;;;24.73;51.85;101493.97;1048516;28;677;-64
2022/07/19 02:55:20;;;;;;;;;;;;;;;24.71;51.62;101480.53;1048633;28;657;-65
2022/07/19 02:56:11;;;;;;;;;;;;;;;24.72;51.85;101484.13;1048349;28;646;-65
2022/07/19 02:57:01;;;;;;;;;;;;;;;24.71;51.78;101483.28;1048553;28;590;-65
2022/07/19 02:57:52;;;;;;;;;;;;;;;24.72;51.74;101476.75;1048279;28;1897;-64
2022/07/19 02:58:42;;;;;;;;;;;;;;;24.71;51.72;101485.16;1048506;28;970;-64
2022/07/19 02:59:32;;;;;;;;;;;;;;;24.69;52.02;101479.00;1048280;28;1002;-64
2022/07/19 03:00:23;;;;;;;;;;;;;;;24.68;52.07;101483.63;1048415;28;701;-65
2022/07/19 03:01:13;;;;;;;;;;;;;;;24.69;52.00;101488.03;1047508;28;653;-64
2022/07/19 03:02:04;;;;;;;;;;;;;;;24.69;51.70;101495.38;1048383;28;701;-64
2022/07/19 03:02:54;;;;;;;;;;;;;;;24.68;51.89;101494.53;1048623;28;618;-65
2022/07/19 03:03:46;;;;;;;;;;;;;;;24.69;52.00;101489.91;1048347;28;622;-65
2022/07/19 03:04:37;;;;;;;;;;;;;;;24.71;51.86;101479.69;1048341;28;763;-65
2022/07/19 03:05:27;;;;;;;;;;;;;;;24.69;51.84;101489.91;1047538;28;749;-65
2022/07/19 03:06:18;;;;;;;;;;;;;;;24.68;51.96;101489.06;1048278;28;685;-65
2022/07/19 03:07:08;;;;;;;;;;;;;;;24.67;51.85;101489.25;1048488;28;883;-65
2022/07/19 03:07:59;;;;;;;;;;;;;;;24.67;51.79;101483.78;1047778;28;651;-64
2022/07/19 03:08:49;;;;;;;;;;;;;;;24.67;51.76;101481.91;1048446;28;708;-65
2022/07/19 03:09:40;;;;;;;;;;;;;;;24.65;52.15;101477.66;1048192;28;670;-64
2022/07/19 03:10:30;;;;;;;;;;;;;;;24.67;52.10;101481.06;1047701;28;594;-64
2022/07/19 03:11:20;;;;;;;;;;;;;;;24.66;51.76;101488.38;1047419;28;662;-64
2022/07/19 03:12:11;;;;;;;;;;;;;;;24.66;51.62;101488.38;1047634;28;681;-65
2022/07/19 03:13:01;;;;;;;;;;;;;;;24.66;52.09;101487.53;1048382;28;638;-64
2022/07/19 03:13:52;;;;;;;;;;;;;;;24.66;52.15;101493.00;1052725;28;617;-65
2022/07/19 03:14:42;;;;;;;;;;;;;;;24.65;52.17;101485.84;1049173;28;685;-64
2022/07/19 03:15:33;;;;;;;;;;;;;;;24.65;51.64;101486.69;1044222;28;656;-65
2022/07/19 03:16:23;;;;;;;;;;;;;;;24.64;51.79;101481.41;1047208;28;595;-65
2022/07/19 03:17:13;;;;;;;;;;;;;;;24.63;52.11;101490.59;1047417;28;647;-64
2022/07/19 03:18:04;;;;;;;;;;;;;;;24.58;51.99;101489.25;1048334;28;1971;-64
2022/07/19 03:18:54;;;;;;;;;;;;;;;24.63;51.98;101485.16;1052850;28;621;-64
2022/07/19 03:19:46;;;;;;;;;;;;;;;24.62;52.00;101494.34;1052784;28;614;-63
2022/07/19 03:20:36;;;;;;;;;;;;;;;24.61;52.04;101488.06;1049072;28;646;-64
2022/07/19 03:21:26;;;;;;;;;;;;;;;24.63;51.95;101487.88;1047347;28;619;-63
2022/07/19 03:22:17;;;;;;;;;;;;;;;24.62;52.23;101491.63;1047727;28;645;-64
2022/07/19 03:23:07;;;;;;;;;;;;;;;24.64;51.86;101492.31;1047385;28;760;-63
2022/07/19 03:23:58;;;;;;;;;;;;;;;24.64;52.05;101484.13;1047512;28;678;-63
2022/07/19 03:24:48;;;;;;;;;;;;;;;24.63;51.60;101482.44;1052870;28;737;-63
2022/07/19 03:25:38;;;;;;;;;;;;;;;24.65;51.89;101485.84;1052651;28;602;-63
2022/07/19 03:26:29;;;;;;;;;;;;;;;24.63;51.87;101487.88;1048954;28;617;-63
2022/07/19 03:27:19;;;;;;;;;;;;;;;24.61;52.25;101485.34;1047710;28;618;-63
2022/07/19 03:28:10;;;;;;;;;;;;;;;24.60;52.07;101482.78;1047551;28;774;-63
2022/07/19 03:29:00;;;;;;;;;;;;;;;24.63;52.02;101482.44;1048460;28;654;-64
2022/07/19 03:29:51;;;;;;;;;;;;;;;24.62;52.12;101486.19;1047706;28;586;-64
2022/07/19 03:30:41;;;;;;;;;;;;;;;24.61;51.86;101485.34;1048332;28;666;-63
2022/07/19 03:31:31;;;;;;;;;;;;;;;24.60;52.19;101485.50;1047702;28;679;-63
2022/07/19 03:32:22;;;;;;;;;;;;;;;24.58;52.02;101486.53;1047538;28;650;-63
2022/07/19 03:33:15;;;;;;;;;;;;;;;24.57;52.13;101489.44;1048428;28;737;-63
2022/07/19 03:34:05;;;;;;;;;;;;;;;24.56;51.95;101480.41;1047484;28;735;-63
2022/07/19 03:34:56;;;;;;;;;;;;;;;24.56;51.96;101488.56;1047613;28;652;-63
2022/07/19 03:35:46;;;;;;;;;;;;;;;24.56;52.14;101488.56;1047644;28;691;-63
2022/07/19 03:36:37;;;;;;;;;;;;;;;24.58;52.03;101485.69;1047542;28;621;-63
2022/07/19 03:37:27;;;;;;;;;;;;;;;24.59;52.29;101481.94;1047585;28;706;-63
2022/07/19 03:38:18;;;;;;;;;;;;;;;24.55;51.95;101488.75;1050908;28;1898;-63
2022/07/19 03:39:08;;;;;;;;;;;;;;;24.55;52.13;101481.41;1051288;28;599;-63
2022/07/19 03:39:58;;;;;;;;;;;;;;;24.58;52.05;101477.50;1051339;28;1539;-63
2022/07/19 03:40:49;;;;;;;;;;;;;;;24.57;52.28;101481.25;1051187;28;666;-63
2022/07/19 03:41:39;;;;;;;;;;;;;;;24.55;52.21;101475.97;1051415;28;576;-63
2022/07/19 03:42:30;;;;;;;;;;;;;;;24.53;52.01;101478.06;1051046;28;705;-63
2022/07/19 03:43:20;;;;;;;;;;;;;;;24.54;52.16;101477.00;1051311;28;678;-63
2022/07/19 03:44:11;;;;;;;;;;;;;;;24.53;52.36;101482.66;1051207;28;642;-63
2022/07/19 03:45:01;;;;;;;;;;;;;;;24.52;52.18;101487.25;1051483;28;670;-63
2022/07/19 03:45:52;;;;;;;;;;;;;;;24.56;52.22;101480.41;1051049;28;646;-63
2022/07/19 03:46:42;;;;;;;;;;;;;;;24.54;52.11;101477.00;1047483;28;814;-63
2022/07/19 03:47:32;;;;;;;;;;;;;;;24.56;52.02;101482.28;1048560;28;682;-63
2022/07/19 03:48:23;;;;;;;;;;;;;;;24.56;52.19;101479.53;1048159;28;650;-63
2022/07/19 03:49:13;;;;;;;;;;;;;;;24.54;52.17;101482.44;1047963;28;666;-63
2022/07/19 03:50:04;;;;;;;;;;;;;;;24.55;51.96;101477.84;1051670;28;623;-63
2022/07/19 03:50:54;;;;;;;;;;;;;;;24.54;52.28;101484.34;1051336;28;1298;-63
2022/07/19 03:51:44;;;;;;;;;;;;;;;24.53;51.95;101483.50;1051024;28;642;-63
2022/07/19 03:52:35;;;;;;;;;;;;;;;24.51;51.94;101480.09;1051197;28;699;-63
2022/07/19 03:53:25;;;;;;;;;;;;;;;24.53;51.85;101480.78;1047541;28;709;-63
2022/07/19 03:54:16;;;;;;;;;;;;;;;24.55;51.86;101480.56;1047860;28;645;-63
2022/07/19 03:55:06;;;;;;;;;;;;;;;24.53;51.96;101478.06;1052590;28;590;-64
2022/07/19 03:55:57;;;;;;;;;;;;;;;24.53;51.92;101479.94;1051104;28;693;-64
2022/07/19 03:56:47;;;;;;;;;;;;;;;24.52;52.11;101478.22;1051205;28;630;-63
2022/07/19 03:57:37;;;;;;;;;;;;;;;24.48;52.04;101482.31;1051464;28;659;-63
2022/07/19 03:58:28;;;;;;;;;;;;;;;24.50;51.97;101480.28;1051092;28;670;-64
2022/07/19 03:59:18;;;;;;;;;;;;;;;24.51;51.96;101479.25;1051454;28;657;-64
2022/07/19 04:00:09;;;;;;;;;;;;;;;24.52;52.17;101476.34;1050974;28;664;-64
2022/07/19 04:00:59;;;;;;;;;;;;;;;24.51;52.10;101471.91;1051315;28;693;-64
2022/07/19 04:01:49;;;;;;;;;;;;;;;24.49;51.81;101481.28;1048334;28;757;-64
2022/07/19 04:02:40;;;;;;;;;;;;;;;24.49;51.99;101473.97;1048397;28;630;-64
2022/07/19 04:03:30;;;;;;;;;;;;;;;24.48;52.42;101480.44;1051797;28;662;-64
2022/07/19 04:04:21;;;;;;;;;;;;;;;24.49;51.79;101475.84;1047224;28;705;-64
2022/07/19 04:05:11;;;;;;;;;;;;;;;24.49;51.97;101482.16;1048450;28;583;-64
2022/07/19 04:06:02;;;;;;;;;;;;;;;24.49;51.72;101475.84;1051768;28;630;-64
2022/07/19 04:06:52;;;;;;;;;;;;;;;24.50;51.94;101481.13;1050960;28;686;-64
2022/07/19 04:07:43;;;;;;;;;;;;;;;24.50;51.93;101475.66;1051024;28;1053;-64
2022/07/19 04:08:33;;;;;;;;;;;;;;;24.48;51.73;101480.44;1048396;28;661;-63
2022/07/19 04:09:24;;;;;;;;;;;;;;;24.50;51.92;101472.09;1047483;28;662;-63
2022/07/19 04:10:14;;;;;;;;;;;;;;;24.49;51.91;101484.88;1047555;28;689;-63
2022/07/19 04:11:05;;;;;;;;;;;;;;;24.50;51.78;101483.00;1047299;28;638;-64
2022/07/19 04:11:55;;;;;;;;;;;;;;;24.50;51.73;101483.84;1047628;28;670;-63
2022/07/19 04:12:45;;;;;;;;;;;;;;;24.51;51.67;101477.38;1047842;28;706;-63
2022/07/19 04:13:36;;;;;;;;;;;;;;;24.49;51.79;101481.28;1047000;28;611;-63
2022/07/19 04:14:26;;;;;;;;;;;;;;;24.48;51.93;101485.88;1047065;28;659;-63
2022/07/19 04:15:17;;;;;;;;;;;;;;;24.48;51.75;101485.88;1047270;28;635;-63
2022/07/19 04:16:07;;;;;;;;;;;;;;;24.47;51.88;101480.63;1047564;28;646;-63
2022/07/19 04:16:57;;;;;;;;;;;;;;;24.46;51.85;101481.63;1047607;28;721;-63
2022/07/19 04:17:48;;;;;;;;;;;;;;;24.47;51.82;101477.88;1048646;28;634;-63
2022/07/19 04:18:38;;;;;;;;;;;;;;;24.44;51.88;101479.09;1047562;28;651;-63
2022/07/19 04:19:29;;;;;;;;;;;;;;;24.43;51.88;101471.09;1047318;28;610;-64
2022/07/19 04:20:19;;;;;;;;;;;;;;;24.42;51.71;101472.94;1047446;28;658;-64
2022/07/19 04:21:10;;;;;;;;;;;;;;;24.44;51.69;101468.19;1053156;28;708;-64
2022/07/19 04:22:00;;;;;;;;;;;;;;;24.46;51.74;101476.19;1053156;28;618;-63
2022/07/19 04:22:50;;;;;;;;;;;;;;;24.46;51.68;101466.13;1047390;28;717;-63
2022/07/19 04:23:41;;;;;;;;;;;;;;;24.46;51.77;101477.03;1047379;28;644;-63
2022/07/19 04:24:31;;;;;;;;;;;;;;;24.44;51.31;101479.09;1047608;28;738;-63
2022/07/19 04:25:22;;;;;;;;;;;;;;;24.40;51.75;101472.28;1048689;28;615;-64